Time;durP1;ratioP1;P1;durP2;ratioP2;P2;SDS_P1;SDS_P2;PMS_P1;PMS_P2;Temp;Humidity;BMP_temperature;BMP_pressure;BME280_temperature;BME280_humidity;BME280_pressure;Samples;Min_cycle;Max_cycle;Signal;HPM_P1;HPM_P2
2021/10/28 00:12:56;;;;;;;26.23;16.50;;;;;;;6.85;100.00;97276.00;5116399;28;20531;-61
2021/10/28 00:15:53;;;;;;;26.87;16.40;;;;;;;6.91;100.00;97277.03;5115889;28;20199;-62
2021/10/28 00:18:14;;;;;;;25.23;15.97;;;;;;;6.91;100.00;97274.44;5114747;28;20188;-63
2021/10/28 00:20:40;;;;;;;24.07;15.27;;;;;;;6.76;100.00;97274.53;5116209;28;20172;-62
2021/10/28 00:23:07;;;;;;;24.90;15.60;;;;;;;6.67;100.00;97279.09;5116082;28;20213;-62
2021/10/28 00:25:36;;;;;;;29.13;16.57;;;;;;;6.66;100.00;97277.47;5115312;28;20204;-62
2021/10/28 00:28:01;;;;;;;25.60;15.83;;;;;;;6.68;100.00;97266.88;5116123;28;20184;-63
2021/10/28 00:30:28;;;;;;;24.53;16.10;;;;;;;6.72;100.00;97265.50;5115985;28;20266;-62
2021/10/28 00:32:54;;;;;;;21.90;14.97;;;;;;;6.61;100.00;97260.81;5097809;28;20184;-61
2021/10/28 00:35:20;;;;;;;26.50;16.57;;;;;;;6.71;100.00;97263.06;5115891;28;20294;-62
2021/10/28 00:37:46;;;;;;;29.63;16.60;;;;;;;6.63;100.00;97258.81;5115891;28;20262;-62
2021/10/28 00:40:12;;;;;;;30.03;17.90;;;;;;;6.66;100.00;97263.63;5115367;28;20202;-61
2021/10/28 00:42:38;;;;;;;24.47;16.17;;;;;;;6.55;100.00;97264.16;5115579;28;20573;-62
2021/10/28 00:45:06;;;;;;;25.77;17.63;;;;;;;6.71;100.00;97263.06;5113788;28;20192;-61
2021/10/28 00:47:36;;;;;;;27.70;16.30;;;;;;;6.45;100.00;97256.69;5115103;28;20215;-62
2021/10/28 00:50:05;;;;;;;27.30;17.40;;;;;;;6.59;100.00;97255.78;5115023;28;20183;-62
2021/10/28 00:52:30;;;;;;;29.97;16.53;;;;;;;6.49;100.00;97268.31;5115113;28;20171;-62
2021/10/28 00:54:56;;;;;;;27.27;17.50;;;;;;;6.56;100.00;97252.75;5114994;28;20538;-62
2021/10/28 00:57:21;;;;;;;25.30;15.63;;;;;;;6.44;100.00;97257.66;5115142;28;20174;-62
2021/10/28 00:59:47;;;;;;;29.87;17.50;;;;;;;6.35;100.00;97255.41;5096972;28;20178;-62
2021/10/28 01:02:14;;;;;;;25.03;16.97;;;;;;;6.51;100.00;97258.53;5114853;28;20573;-58
2021/10/28 01:04:39;;;;;;;26.90;16.53;;;;;;;6.37;100.00;97249.00;5114327;28;20204;-60
2021/10/28 01:07:05;;;;;;;28.53;18.17;;;;;;;6.44;100.00;97252.47;5114514;28;20622;-59
2021/10/28 01:09:31;;;;;;;34.10;18.67;;;;;;;6.17;100.00;97251.44;5114929;28;20172;-60
2021/10/28 01:11:57;;;;;;;30.20;18.10;;;;;;;6.10;100.00;97247.97;5114354;28;20179;-57
2021/10/28 01:14:23;;;;;;;29.57;18.60;;;;;;;6.17;100.00;97248.84;5115093;28;20261;-61
2021/10/28 01:16:55;;;;;;;28.73;18.07;;;;;;;6.20;100.00;97243.25;5114755;28;20260;-58
2021/10/28 01:19:22;;;;;;;30.80;18.43;;;;;;;6.32;100.00;97250.56;5114881;28;20164;-55
2021/10/28 01:21:48;;;;;;;30.40;18.83;;;;;;;6.09;100.00;97243.75;5114765;28;20263;-55
2021/10/28 01:24:14;;;;;;;30.43;18.13;;;;;;;6.19;100.00;97236.44;5114320;28;20562;-56
2021/10/28 01:26:39;;;;;;;27.50;17.53;;;;;;;6.14;100.00;97236.19;5114230;28;20252;-61
2021/10/28 01:29:05;;;;;;;28.60;18.43;;;;;;;6.04;100.00;97237.50;5114945;28;20201;-58
2021/10/28 01:31:32;;;;;;;27.90;17.80;;;;;;;6.01;100.00;97230.91;5114675;28;20202;-59
2021/10/28 01:33:59;;;;;;;33.07;19.30;;;;;;;5.97;100.00;97232.22;5114148;28;20195;-60
2021/10/28 01:36:26;;;;;;;30.37;17.93;;;;;;;6.00;100.00;97236.28;5097844;28;20168;-56
2021/10/28 01:38:53;;;;;;;27.07;17.57;;;;;;;5.86;100.00;97237.91;5114463;28;20172;-61
2021/10/28 01:41:19;;;;;;;30.43;17.83;;;;;;;5.86;100.00;97238.72;5114187;28;20283;-62
2021/10/28 01:43:45;;;;;;;26.90;17.27;;;;;;;5.86;100.00;97233.50;5113788;28;20561;-56
2021/10/28 01:46:11;;;;;;;25.37;16.47;;;;;;;5.72;100.00;97231.78;5111903;28;20227;-59
2021/10/28 01:48:41;;;;;;;29.97;18.00;;;;;;;5.85;100.00;97233.72;5114615;28;20182;-62
2021/10/28 01:51:11;;;;;;;28.33;16.80;;;;;;;5.84;100.00;97232.91;5113598;28;20160;-59
2021/10/28 01:53:41;;;;;;;28.07;17.53;;;;;;;5.79;100.00;97229.25;5114237;28;20179;-62
2021/10/28 01:56:08;;;;;;;26.57;17.03;;;;;;;5.85;100.00;97228.50;5113905;28;20168;-62
2021/10/28 01:58:35;;;;;;;26.03;16.93;;;;;;;5.92;100.00;97229.38;5114378;28;20640;-61
2021/10/28 02:01:02;;;;;;;25.97;16.17;;;;;;;5.85;100.00;97231.91;5114015;28;20693;-62
2021/10/28 02:03:28;;;;;;;25.50;15.97;;;;;;;5.69;100.00;97229.53;5114062;28;20180;-62
2021/10/28 02:05:55;;;;;;;23.90;14.97;;;;;;;5.64;100.00;97231.06;5114366;28;20195;-62
2021/10/28 02:08:20;;;;;;;24.47;14.93;;;;;;;5.64;100.00;97231.06;5113804;28;20172;-60
2021/10/28 02:10:46;;;;;;;25.80;15.90;;;;;;;5.50;100.00;97234.53;5113835;28;20171;-61
2021/10/28 02:13:13;;;;;;;25.83;15.80;;;;;;;5.48;100.00;97232.13;5113841;28;20180;-62
2021/10/28 02:15:40;;;;;;;22.73;15.03;;;;;;;5.36;100.00;97228.38;5113644;28;20195;-62
2021/10/28 02:18:06;;;;;;;26.37;15.13;;;;;;;5.29;100.00;97225.72;5113777;28;20257;-62
2021/10/28 02:20:31;;;;;;;26.33;14.70;;;;;;;5.31;100.00;97223.72;5113515;28;20199;-59
2021/10/28 02:22:57;;;;;;;21.73;14.47;;;;;;;5.36;100.00;97223.16;5112645;28;20175;-59
2021/10/28 02:25:22;;;;;;;21.77;14.00;;;;;;;5.31;100.00;97223.72;5112970;28;20203;-60
2021/10/28 02:27:48;;;;;;;23.73;14.70;;;;;;;5.26;100.00;97225.25;5113688;28;20209;-62
2021/10/28 02:30:14;;;;;;;24.37;14.63;;;;;;;5.27;100.00;97225.09;5113587;28;20209;-59
2021/10/28 02:32:43;;;;;;;23.33;14.97;;;;;;;5.45;100.00;97227.28;5113273;28;20544;-60
2021/10/28 02:35:09;;;;;;;22.53;14.30;;;;;;;5.23;100.00;97228.22;5113551;28;20223;-60
2021/10/28 02:37:35;;;;;;;22.30;14.13;;;;;;;5.27;100.00;97227.69;5112532;28;20218;-61
2021/10/28 02:40:00;;;;;;;22.73;14.47;;;;;;;5.22;100.00;97224.03;5113530;28;20581;-62
2021/10/28 02:42:26;;;;;;;23.83;15.30;;;;;;;5.38;100.00;97226.41;5113668;28;20761;-62
2021/10/28 02:44:52;;;;;;;25.93;14.80;;;;;;;5.50;100.00;97231.94;5113773;28;20200;-62
2021/10/28 02:47:18;;;;;;;23.00;14.43;;;;;;;5.40;100.00;97227.03;5110964;28;20239;-62
2021/10/28 02:49:43;;;;;;;26.13;15.60;;;;;;;5.35;100.00;97214.56;5113396;28;20682;-62
2021/10/28 02:52:09;;;;;;;22.27;15.07;;;;;;;5.30;100.00;97216.09;5113085;28;20516;-62
2021/10/28 02:54:37;;;;;;;23.10;14.50;;;;;;;5.12;100.00;97216.53;5113202;28;20199;-62
2021/10/28 02:57:03;;;;;;;23.50;14.93;;;;;;;5.32;100.00;97217.53;5112602;28;20171;-62
2021/10/28 02:59:28;;;;;;;22.20;15.13;;;;;;;5.25;100.00;97219.25;5113175;28;20176;-61
2021/10/28 03:01:56;;;;;;;21.80;13.37;;;;;;;5.15;100.00;97221.34;5112773;28;20172;-59
2021/10/28 03:04:24;;;;;;;22.57;14.53;;;;;;;5.07;100.00;97215.44;5112686;28;20196;-61
2021/10/28 03:06:51;;;;;;;20.97;13.77;;;;;;;5.11;100.00;97212.31;5112822;28;20716;-62
2021/10/28 03:09:19;;;;;;;22.40;13.93;;;;;;;5.15;100.00;97207.53;5112986;28;20177;-62
2021/10/28 03:11:47;;;;;;;18.20;13.50;;;;;;;5.07;100.00;97208.44;5112966;28;20221;-61
2021/10/28 03:14:15;;;;;;;23.83;14.20;;;;;;;5.12;100.00;97202.72;5094410;28;20226;-62
2021/10/28 03:19:32;;;;;;;25.33;14.17;;;;;;;5.07;100.00;97199.88;5112706;28;20218;-62
2021/10/28 03:27:28;;;;;;;18.27;13.37;;;;;;;4.95;100.00;97202.13;5112705;28;20714;-61
2021/10/28 03:29:55;;;;;;;20.80;13.83;;;;;;;4.98;100.00;97205.16;5112392;28;20183;-62
2021/10/28 03:32:22;;;;;;;18.37;13.53;;;;;;;4.96;100.00;97195.91;5094427;28;20262;-62
2021/10/28 03:34:49;;;;;;;19.87;13.97;;;;;;;5.17;100.00;97208.97;5114160;28;20261;-62
2021/10/28 03:37:20;;;;;;;19.33;14.03;;;;;;;5.18;100.00;97195.00;5116840;28;20172;-61
2021/10/28 04:31:28;;;;;;;30.27;16.93;;;;;;;5.51;100.00;97194.56;5116264;28;20176;-62
2021/10/28 04:33:55;;;;;;;25.03;15.77;;;;;;;5.62;100.00;97197.47;5116557;28;20218;-62
2021/10/28 04:36:28;;;;;;;26.60;15.63;;;;;;;5.72;100.00;97197.16;5116506;28;20180;-62
2021/10/28 04:38:53;;;;;;;22.77;15.50;;;;;;;5.60;100.00;97199.44;5116084;28;20266;-62
2021/10/28 04:41:20;;;;;;;23.60;16.23;;;;;;;5.49;100.00;97197.34;5116325;28;20179;-62
2021/10/28 04:43:45;;;;;;;31.57;16.63;;;;;;;5.44;100.00;97190.09;5115775;28;20200;-63
2021/10/28 04:46:11;;;;;;;22.80;15.47;;;;;;;5.46;100.00;97194.31;5113221;28;20231;-63
2021/10/28 04:48:36;;;;;;;23.20;15.07;;;;;;;5.49;100.00;97189.53;5115509;28;20172;-63
2021/10/28 04:51:01;;;;;;;27.80;16.57;;;;;;;5.43;100.00;97185.06;5115675;28;20640;-63
2021/10/28 04:53:28;;;;;;;24.20;15.80;;;;;;;5.28;100.00;97190.31;5115080;28;20175;-61
2021/10/28 04:55:54;;;;;;;26.93;16.53;;;;;;;5.17;100.00;97180.41;5115026;28;20167;-68
2021/10/28 04:58:19;;;;;;;27.60;16.17;;;;;;;5.05;100.00;97184.44;5114989;28;20267;-60
2021/10/28 05:00:45;;;;;;;22.50;15.20;;;;;;;4.87;100.00;97178.81;5115421;28;20168;-59
2021/10/28 05:03:10;;;;;;;23.57;14.53;;;;;;;4.78;100.00;97179.91;5115177;28;20171;-62
2021/10/28 05:05:35;;;;;;;22.77;14.53;;;;;;;4.85;100.00;97176.41;5114938;28;20203;-58
2021/10/28 05:08:01;;;;;;;23.70;15.70;;;;;;;4.80;100.00;97172.75;5115066;28;20211;-61
2021/10/28 05:10:30;;;;;;;22.27;15.10;;;;;;;5.03;100.00;97170.81;5115036;28;20176;-62
2021/10/28 05:12:55;;;;;;;21.30;14.97;;;;;;;5.03;100.00;97171.63;5114862;28;20703;-62
2021/10/28 05:15:20;;;;;;;21.37;14.27;;;;;;;5.20;100.00;97172.22;5114560;28;20274;-62
2021/10/28 05:17:46;;;;;;;22.63;15.20;;;;;;;5.19;100.00;97169.81;5114913;28;20187;-59
2021/10/28 05:20:11;;;;;;;22.33;15.20;;;;;;;4.92;100.00;97169.50;5096671;28;20182;-62
2021/10/28 05:22:37;;;;;;;22.00;14.50;;;;;;;4.68;100.00;97174.19;5114685;28;20168;-61
2021/10/28 05:25:03;;;;;;;19.67;14.17;;;;;;;4.68;100.00;97167.19;5113955;28;20194;-62
2021/10/28 05:27:29;;;;;;;19.47;13.73;;;;;;;4.73;100.00;97164.88;5114518;28;20212;-63
2021/10/28 05:29:54;;;;;;;25.17;14.80;;;;;;;4.70;100.00;97167.81;5114886;28;20172;-63
2021/10/28 05:32:20;;;;;;;22.37;14.87;;;;;;;4.65;100.00;97164.16;5114671;28;20262;-62
2021/10/28 05:34:48;;;;;;;22.17;14.63;;;;;;;4.50;100.00;97166.78;5114541;28;20214;-62
2021/10/28 05:37:14;;;;;;;22.43;14.23;;;;;;;4.83;100.00;97159.41;5114634;28;20204;-62
2021/10/28 05:39:39;;;;;;;23.97;15.93;;;;;;;4.54;100.00;97168.81;5114558;28;20175;-62
2021/10/28 05:42:05;;;;;;;23.10;15.87;;;;;;;4.49;100.00;97163.38;5114150;28;20233;-62
2021/10/28 05:44:30;;;;;;;22.87;14.77;;;;;;;4.59;100.00;97165.69;5114183;28;20192;-64
2021/10/28 05:46:56;;;;;;;23.67;15.23;;;;;;;4.65;100.00;97169.34;5111985;28;20238;-63
2021/10/28 05:49:21;;;;;;;24.07;14.73;;;;;;;4.75;100.00;97178.47;5113747;28;20509;-63
2021/10/28 05:51:48;;;;;;;22.47;15.47;;;;;;;4.68;100.00;97162.00;5114240;28;20176;-61
2021/10/28 05:54:13;;;;;;;24.27;15.57;;;;;;;4.65;100.00;97162.38;5094830;28;20223;-63
2021/10/28 05:56:39;;;;;;;24.57;15.57;;;;;;;4.55;100.00;97164.44;5113929;28;20249;-63
2021/10/28 05:59:05;;;;;;;24.03;14.93;;;;;;;4.48;100.00;97171.31;5113816;28;20176;-63
2021/10/28 06:01:30;;;;;;;23.63;14.87;;;;;;;4.57;100.00;97167.63;5113328;28;20172;-65
2021/10/28 06:03:56;;;;;;;25.07;15.23;;;;;;;4.65;100.00;97166.75;5113856;28;20195;-64
2021/10/28 06:06:21;;;;;;;26.63;16.10;;;;;;;4.70;100.00;97169.63;5113927;28;20668;-64
2021/10/28 06:08:47;;;;;;;22.67;15.43;;;;;;;4.77;100.00;97175.72;5114135;28;20689;-67
2021/10/28 06:11:15;;;;;;;21.80;14.10;;;;;;;4.84;100.00;97169.63;5094951;28;20627;-64
2021/10/28 06:13:46;;;;;;;23.47;15.40;;;;;;;4.98;100.00;97179.16;5113186;28;20219;-65
2021/10/28 06:16:12;;;;;;;22.03;14.83;;;;;;;4.89;100.00;97164.69;5095070;28;20636;-64
2021/10/28 06:18:41;;;;;;;25.10;14.93;;;;;;;4.97;100.00;97177.56;5095398;28;20534;-63
2021/10/28 06:21:07;;;;;;;21.43;14.77;;;;;;;5.00;100.00;97169.41;5113101;28;20175;-64
2021/10/28 06:23:32;;;;;;;21.77;14.83;;;;;;;5.08;100.00;97165.09;5113380;28;20175;-64
2021/10/28 06:25:58;;;;;;;23.83;14.77;;;;;;;5.02;100.00;97169.22;5112938;28;20600;-62
2021/10/28 06:28:23;;;;;;;24.50;14.97;;;;;;;5.07;100.00;97185.06;5113713;28;20197;-61
2021/10/28 06:30:49;;;;;;;23.47;14.77;;;;;;;5.17;100.00;97177.81;5113411;28;20168;-63
2021/10/28 06:33:20;;;;;;;26.00;16.10;;;;;;;5.06;100.00;97175.69;5113084;28;20195;-63
2021/10/28 06:35:59;;;;;;;21.40;15.03;;;;;;;4.89;100.00;97175.06;5113137;28;20180;-66
2021/10/28 06:38:25;;;;;;;22.17;14.83;;;;;;;4.79;100.00;97177.13;5094323;28;20194;-64
2021/10/28 06:40:50;;;;;;;22.03;14.63;;;;;;;4.89;100.00;97172.47;5112674;28;20168;-62
2021/10/28 06:43:16;;;;;;;24.40;14.87;;;;;;;5.07;100.00;97173.88;5113083;28;20175;-64
2021/10/28 06:45:41;;;;;;;21.13;14.47;;;;;;;5.23;100.00;97168.47;5110788;28;20262;-64
2021/10/28 06:48:07;;;;;;;21.27;14.57;;;;;;;5.39;100.00;97176.03;5112768;28;20184;-64
2021/10/28 06:50:40;;;;;;;18.60;12.77;;;;;;;5.53;100.00;97172.56;5111767;28;20267;-64
2021/10/28 07:03:19;;;;;;;19.87;13.57;;;;;;;6.13;100.00;97150.53;5098689;28;20182;-64
2021/10/28 07:05:45;;;;;;;18.27;12.53;;;;;;;6.21;100.00;97156.38;5100098;28;20200;-64
2021/10/28 07:08:10;;;;;;;17.47;13.43;;;;;;;6.60;100.00;97158.44;5104428;28;20244;-64
2021/10/28 07:10:36;;;;;;;14.10;12.27;;;;;;;6.51;100.00;97156.97;5111538;28;20218;-64
2021/10/28 07:13:09;;;;;;;17.57;12.63;;;;;;;6.59;100.00;97159.41;5111177;28;20164;-63
2021/10/28 07:16:00;;;;;;;18.13;12.27;;;;;;;6.78;100.00;97160.53;5112553;28;20231;-64
2021/10/28 07:21:28;;;;;;;15.60;11.30;;;;;;;7.03;100.00;97164.22;5112355;28;20729;-63
2021/10/28 07:27:07;;;;;;;14.90;11.17;;;;;;;7.13;100.00;97158.69;5111910;28;20283;-63
2021/10/28 08:22:03;;;;;;;11.80;8.80;;;;;;;8.42;93.71;97148.75;5116064;28;20183;-64
2021/10/28 08:29:44;;;;;;;14.63;9.80;;;;;;;8.50;93.95;97140.72;5118406;28;20267;-65
2021/10/28 08:32:10;;;;;;;14.60;10.70;;;;;;;8.53;93.46;97137.69;5089787;28;20168;-64
2021/10/28 08:34:37;;;;;;;15.70;10.53;;;;;;;8.50;93.99;97138.91;5118227;28;20210;-64
2021/10/28 08:37:08;;;;;;;16.83;10.77;;;;;;;8.41;93.74;97141.94;5118084;28;20244;-64
2021/10/28 08:39:42;;;;;;;18.13;11.13;;;;;;;8.43;93.73;97138.13;5117631;28;20704;-63
2021/10/28 08:42:11;;;;;;;14.33;10.13;;;;;;;8.45;93.55;97133.50;5117746;28;20674;-64
2021/10/28 08:44:44;;;;;;;15.40;11.23;;;;;;;8.59;93.39;97132.44;5116478;28;20203;-64
2021/10/28 08:47:11;;;;;;;13.73;10.27;;;;;;;8.64;92.82;97124.00;5113374;28;20227;-65
2021/10/28 09:19:39;;;;;;;15.30;10.43;;;;;;;9.37;92.39;97121.84;5114772;28;20186;-64
2021/10/28 09:24:58;;;;;;;13.37;10.67;;;;;;;9.36;93.30;97113.22;5114530;28;20238;-64
2021/10/28 09:27:28;;;;;;;15.00;10.83;;;;;;;9.57;91.64;97106.84;5114591;28;20203;-62
2021/10/28 09:32:40;;;;;;;14.97;11.07;;;;;;;9.73;92.41;97111.56;5114544;28;20556;-63
2021/10/28 09:52:03;;;;;;;15.60;11.63;;;;;;;10.34;88.97;97097.78;5116714;28;20530;-64
2021/10/28 09:54:46;;;;;;;16.57;11.77;;;;;;;10.68;87.35;97099.03;5118253;28;20199;-64
2021/10/28 10:00:09;;;;;;;18.47;11.70;;;;;;;10.61;88.28;97101.72;5118257;28;20179;-64
2021/10/28 10:02:43;;;;;;;14.97;11.50;;;;;;;10.52;87.94;97102.22;5119007;28;20168;-64
2021/10/28 10:05:19;;;;;;;17.80;11.20;;;;;;;10.78;87.03;97101.91;5120444;28;20196;-64
2021/10/28 10:07:46;;;;;;;17.13;11.50;;;;;;;10.79;87.13;97098.28;5125494;28;20187;-64
2021/10/28 10:10:29;;;;;;;15.80;11.37;;;;;;;10.91;86.79;97098.34;5124565;28;20176;-64
2021/10/28 10:12:56;;;;;;;16.57;11.77;;;;;;;10.99;87.59;97090.97;5115689;28;20191;-63
2021/10/28 10:15:21;;;;;;;15.47;11.57;;;;;;;11.03;86.89;97100.00;5114185;28;20218;-64
2021/10/28 10:17:52;;;;;;;15.70;11.37;;;;;;;10.99;87.26;97111.13;5115460;28;20186;-64
2021/10/28 10:20:21;;;;;;;18.93;12.23;;;;;;;11.24;85.98;97106.59;5115208;28;20171;-64
2021/10/28 11:30:04;;;;;;;306.40;27.57;;;;;;;12.84;77.77;97038.78;5112813;28;20180;-69
2021/10/28 11:32:28;;;;;;;12.30;9.10;;;;;;;12.87;77.24;97036.47;5111920;28;20191;-68
2021/10/28 12:14:55;;;;;;;10.57;8.37;;;;;;;13.38;75.08;96992.66;5054824;28;20669;-69
2021/10/28 12:25:09;;;;;;;10.57;7.67;;;;;;;13.55;73.51;96982.13;5054730;28;20738;-66
2021/10/28 12:44:19;;;;;;;9.20;7.60;;;;;;;13.71;72.75;96957.63;5054737;28;20260;-66
2021/10/28 12:55:08;;;;;;;9.60;7.27;;;;;;;13.79;72.27;96940.59;5094825;28;20271;-66
2021/10/28 15:35:57;;;;;;;9.60;6.93;;;;;;;13.06;74.63;96855.53;5117436;28;20225;-65
2021/10/28 15:38:33;;;;;;;10.80;7.53;;;;;;;12.96;74.89;96857.22;5117087;28;20176;-64
2021/10/28 16:24:07;;;;;;;14.63;9.63;;;;;;;12.19;78.48;96843.81;5116131;28;20207;-63
2021/10/28 16:26:33;;;;;;;11.97;9.40;;;;;;;12.13;79.00;96845.53;5115537;28;20204;-63
2021/10/28 16:29:01;;;;;;;11.53;9.00;;;;;;;12.01;79.40;96839.53;5116350;28;20616;-64
2021/10/28 16:31:26;;;;;;;17.00;9.20;;;;;;;11.98;79.61;96851.28;5097686;28;20525;-63
2021/10/28 16:33:52;;;;;;;13.60;9.80;;;;;;;12.05;79.61;96838.81;5116242;28;20225;-65
2021/10/28 16:36:21;;;;;;;13.33;9.50;;;;;;;11.91;79.77;96845.41;5116023;28;20180;-64
2021/10/28 16:38:46;;;;;;;12.77;9.90;;;;;;;11.82;80.31;96846.78;5116014;28;20180;-64
2021/10/28 16:41:12;;;;;;;13.57;9.63;;;;;;;11.76;80.69;96845.06;5097453;28;20287;-65
2021/10/28 16:43:37;;;;;;;14.83;10.47;;;;;;;11.74;81.24;96843.72;5114629;28;20195;-65
2021/10/28 16:46:03;;;;;;;21.07;12.73;;;;;;;11.72;81.53;96840.50;5113646;28;20254;-64
2021/10/28 16:48:28;;;;;;;28.70;15.77;;;;;;;11.63;82.00;96848.75;5115702;28;20232;-65
2021/10/28 16:50:54;;;;;;;39.47;18.17;;;;;;;11.56;82.51;96849.88;5115827;28;20255;-64
2021/10/28 16:53:20;;;;;;;32.47;17.83;;;;;;;11.51;82.90;96852.41;5115609;28;20163;-64
2021/10/28 16:55:47;;;;;;;35.70;19.20;;;;;;;11.47;83.19;96846.03;5115816;28;20192;-64
2021/10/28 16:58:12;;;;;;;30.63;16.87;;;;;;;11.47;83.24;96848.66;5115433;28;20153;-65
2021/10/28 17:00:37;;;;;;;27.47;16.97;;;;;;;11.41;83.40;96850.38;5115887;28;20481;-65
2021/10/28 17:03:04;;;;;;;22.67;13.53;;;;;;;11.44;83.40;96847.28;5116046;28;20531;-64
2021/10/28 17:05:30;;;;;;;19.57;11.63;;;;;;;11.34;83.92;96848.88;5115543;28;20196;-65
2021/10/28 17:07:55;;;;;;;16.43;11.07;;;;;;;11.42;83.14;96846.72;5097231;28;20196;-64
2021/10/28 17:10:21;;;;;;;15.70;10.53;;;;;;;11.38;83.22;96842.13;5115888;28;20639;-64
2021/10/28 17:12:46;;;;;;;12.47;8.37;;;;;;;11.35;83.32;96842.63;5097286;28;20164;-65
2021/10/28 17:15:12;;;;;;;14.97;9.07;;;;;;;11.50;82.58;96848.97;5115431;28;20564;-65
2021/10/28 17:17:37;;;;;;;10.53;7.90;;;;;;;11.38;82.90;96840.31;5115662;28;20168;-65
2021/10/28 17:20:06;;;;;;;12.50;8.20;;;;;;;11.38;82.77;96848.19;5115466;28;20229;-64
2021/10/28 17:22:36;;;;;;;10.93;8.07;;;;;;;11.33;83.10;96853.31;5114805;28;20160;-67
2021/10/28 17:25:06;;;;;;;10.57;8.07;;;;;;;11.24;83.65;96852.88;5113977;28;20287;-65
2021/10/28 17:27:32;;;;;;;10.97;7.93;;;;;;;11.26;83.08;96847.41;5096404;28;20230;-63
2021/10/28 17:29:59;;;;;;;11.73;7.30;;;;;;;11.16;83.51;96847.16;5114890;28;20629;-65
2021/10/28 17:32:25;;;;;;;12.87;8.40;;;;;;;11.11;83.52;96844.44;5114963;28;20248;-65
2021/10/28 17:34:51;;;;;;;11.63;8.30;;;;;;;11.11;83.39;96842.63;5096879;28;20679;-65
2021/10/28 17:37:16;;;;;;;14.10;8.63;;;;;;;11.12;83.38;96840.78;5114989;28;20194;-65
2021/10/28 17:39:42;;;;;;;12.13;7.70;;;;;;;11.17;83.52;96836.47;5116567;28;20661;-65
2021/10/28 17:42:09;;;;;;;9.67;7.90;;;;;;;11.12;83.79;96840.78;5116389;28;20278;-66
2021/10/28 17:44:52;;;;;;;10.43;8.10;;;;;;;11.13;83.73;96845.03;5114664;28;20294;-65
2021/10/28 17:47:18;;;;;;;13.30;9.07;;;;;;;11.02;84.09;96840.56;5114003;28;20236;-66
2021/10/28 17:49:45;;;;;;;10.87;9.03;;;;;;;11.05;83.78;96846.16;5115592;28;20569;-66
2021/10/28 17:52:10;;;;;;;12.67;8.70;;;;;;;10.99;84.30;96843.63;5116437;28;20535;-67
2021/10/28 17:54:36;;;;;;;13.20;8.50;;;;;;;10.96;84.16;96844.91;5113961;28;20200;-66
2021/10/28 17:57:04;;;;;;;10.17;8.17;;;;;;;10.88;84.58;96837.34;5115027;28;20531;-66
2021/10/28 17:59:29;;;;;;;11.23;8.60;;;;;;;10.89;84.77;96843.41;5114695;28;20167;-66
2021/10/28 18:01:56;;;;;;;12.57;9.30;;;;;;;11.01;83.82;96838.97;5114977;28;20536;-66
2021/10/28 18:04:22;;;;;;;12.87;9.07;;;;;;;11.03;83.61;96842.16;5114907;28;20200;-67
2021/10/28 18:06:49;;;;;;;12.67;10.00;;;;;;;11.10;83.13;96845.47;5114826;28;20259;-66
2021/10/28 18:09:16;;;;;;;11.67;8.43;;;;;;;11.09;82.48;96842.03;5114674;28;20205;-66
2021/10/28 18:11:41;;;;;;;11.73;8.60;;;;;;;10.92;83.82;96841.13;5114310;28;20247;-67
2021/10/28 18:14:12;;;;;;;11.87;8.30;;;;;;;10.88;84.27;96841.78;5114309;28;20234;-67
2021/10/28 18:16:39;;;;;;;12.80;9.13;;;;;;;10.86;84.63;96841.25;5114697;28;20187;-67
2021/10/28 18:19:05;;;;;;;12.53;9.77;;;;;;;10.74;85.29;96841.22;5114087;28;20152;-67
2021/10/28 18:21:30;;;;;;;11.70;8.97;;;;;;;10.73;85.82;96834.38;5113997;28;20163;-66
2021/10/28 18:23:57;;;;;;;12.57;8.60;;;;;;;10.70;85.77;96832.22;5095455;28;20192;-67
2021/10/28 18:26:26;;;;;;;15.13;9.33;;;;;;;10.84;85.73;96828.34;5113099;28;20238;-67
2021/10/28 18:28:53;;;;;;;11.80;8.67;;;;;;;10.63;86.46;96829.69;5113736;28;20164;-67
2021/10/28 18:31:19;;;;;;;16.40;9.07;;;;;;;10.51;88.08;96828.88;5114140;28;20197;-67
2021/10/28 18:33:45;;;;;;;10.93;8.43;;;;;;;10.56;88.24;96826.38;5113373;27;20203;-67
2021/10/28 18:36:12;;;;;;;14.87;9.23;;;;;;;10.51;89.19;96820.22;5112304;28;20180;-67
2021/10/28 18:38:38;;;;;;;11.93;8.47;;;;;;;10.50;89.59;96821.22;5113055;28;20266;-68
2021/10/28 18:41:04;;;;;;;11.90;9.03;;;;;;;10.58;89.61;96815.69;5113003;28;20250;-69
2021/10/28 18:43:30;;;;;;;13.27;8.87;;;;;;;10.58;89.60;96820.91;5112511;28;20180;-69
2021/10/28 18:45:56;;;;;;;13.47;8.43;;;;;;;10.58;89.58;96818.28;5110284;28;20227;-69
2021/10/28 18:48:23;;;;;;;12.73;8.77;;;;;;;10.55;89.83;96819.53;5111804;28;20192;-69
2021/10/28 18:50:48;;;;;;;12.43;8.67;;;;;;;10.49;90.47;96812.56;5106377;28;20183;-69
2021/10/28 18:53:14;;;;;;;10.83;7.73;;;;;;;10.27;91.57;96814.91;5110256;28;20726;-69
2021/10/28 18:55:40;;;;;;;11.30;8.63;;;;;;;10.22;91.76;96814.78;5113878;28;20224;-70
2021/10/28 18:58:07;;;;;;;11.70;8.53;;;;;;;10.20;92.35;96814.19;5096060;28;20179;-70
2021/10/28 19:00:33;;;;;;;12.93;9.40;;;;;;;10.39;91.98;96812.31;5113987;28;20640;-70
2021/10/28 19:02:59;;;;;;;16.30;10.00;;;;;;;10.36;91.92;96808.34;5096319;28;20187;-70
2021/10/28 19:05:25;;;;;;;13.53;9.63;;;;;;;10.33;92.85;96802.72;5084634;28;20204;-70
2021/10/28 19:07:51;;;;;;;14.17;9.33;;;;;;;10.32;93.17;96806.38;5092908;28;20269;-70
2021/10/28 19:10:16;;;;;;;13.77;10.40;;;;;;;10.31;93.04;96799.53;5108878;28;20165;-69
2021/10/28 19:12:42;;;;;;;15.10;9.57;;;;;;;10.35;93.38;96805.94;5083425;28;20207;-70
2021/10/28 19:15:09;;;;;;;14.70;10.33;;;;;;;10.13;94.08;96799.59;5109974;28;20203;-70
2021/10/28 19:17:35;;;;;;;14.73;10.10;;;;;;;9.94;95.33;96796.19;5109987;28;20160;-67
2021/10/28 19:20:02;;;;;;;15.23;10.33;;;;;;;9.96;95.49;96796.78;5107037;28;20172;-70
2021/10/28 19:22:32;;;;;;;12.27;10.00;;;;;;;9.72;96.29;96793.25;5096871;28;20218;-72
2021/10/28 19:25:02;;;;;;;14.93;10.30;;;;;;;9.76;96.42;96791.00;5111372;28;20288;-70
2021/10/28 19:27:27;;;;;;;14.87;10.50;;;;;;;9.68;96.97;96799.97;5091670;28;20195;-69
2021/10/28 19:30:02;;;;;;;14.73;10.77;;;;;;;9.62;97.55;96789.56;5093646;28;20178;-70
2021/10/28 19:32:28;;;;;;;14.93;11.27;;;;;;;9.51;98.38;96781.44;5112589;28;20171;-71
2021/10/28 19:34:55;;;;;;;16.20;10.97;;;;;;;9.65;97.69;96787.31;5112402;28;20206;-71
2021/10/28 19:37:34;;;;;;;18.47;12.43;;;;;;;9.52;98.50;96785.69;5112311;28;20237;-71
2021/10/28 19:40:11;;;;;;;16.13;10.97;;;;;;;9.52;98.42;96787.50;5112840;28;20194;-70
2021/10/28 19:45:27;;;;;;;14.93;11.23;;;;;;;9.36;99.64;96793.31;5099219;28;20286;-69
2021/10/28 19:47:52;;;;;;;17.50;12.03;;;;;;;9.39;99.62;96795.47;5112280;28;20200;-69
2021/10/28 19:50:19;;;;;;;17.87;11.70;;;;;;;9.37;99.43;96798.31;5112877;28;20182;-70
2021/10/28 19:52:45;;;;;;;17.20;12.30;;;;;;;9.39;99.46;96791.03;5112593;28;20241;-70
2021/10/28 19:55:12;;;;;;;17.90;11.87;;;;;;;9.26;100.00;96793.00;5112220;28;20224;-68
2021/10/28 19:57:41;;;;;;;16.23;11.57;;;;;;;9.29;100.00;96787.34;5092836;28;20282;-68
2021/10/28 20:00:19;;;;;;;14.73;11.30;;;;;;;9.17;100.00;96789.88;5110857;28;20177;-68
2021/10/28 20:08:16;;;;;;;13.83;10.30;;;;;;;8.98;100.00;96786.44;5100855;28;20640;-69
2021/10/28 20:21:34;;;;;;;16.20;11.40;;;;;;;8.82;100.00;96778.34;5112653;28;20195;-70
2021/10/28 20:24:00;;;;;;;15.63;11.10;;;;;;;8.65;100.00;96778.09;5113861;28;20204;-70
2021/10/28 20:26:26;;;;;;;16.60;12.70;;;;;;;8.63;100.00;96772.31;5110842;28;20212;-70
2021/10/28 20:28:54;;;;;;;16.83;11.57;;;;;;;8.65;100.00;96767.66;5115353;28;20164;-70
2021/10/28 20:31:20;;;;;;;17.57;11.97;;;;;;;8.82;100.00;96763.47;5116172;28;20718;-70
2021/10/28 20:33:51;;;;;;;17.30;12.73;;;;;;;8.74;100.00;96771.63;5114591;28;20578;-70
2021/10/28 20:38:59;;;;;;;19.53;13.77;;;;;;;8.77;100.00;96763.31;5113782;28;20194;-71
2021/10/28 20:41:25;;;;;;;22.37;13.70;;;;;;;8.61;100.00;96761.25;5115494;28;20682;-70
2021/10/28 20:43:52;;;;;;;18.13;12.83;;;;;;;8.52;100.00;96763.38;5114290;28;20210;-70